createdAt,value
2022-11-07T00:02:12.608Z,56.91
2022-11-07T00:04:42.693Z,57.01
2022-11-07T00:07:11.469Z,57.02
2022-11-07T00:09:39.733Z,56.91
2022-11-07T00:12:08.971Z,56.80
2022-11-07T00:14:37.239Z,57.02
2022-11-07T00:17:05.853Z,57.14
2022-11-07T00:19:34.084Z,56.96
2022-11-07T00:22:03.690Z,57.02
2022-11-07T00:24:31.946Z,57.19
2022-11-07T00:27:00.249Z,57.16
2022-11-07T00:29:28.591Z,57.07
2022-11-07T00:31:56.889Z,57.25
2022-11-07T00:34:25.114Z,57.16
2022-11-07T00:36:53.359Z,57.20
2022-11-07T00:39:23.005Z,57.27
2022-11-07T00:41:51.348Z,57.33
2022-11-07T00:44:19.622Z,57.27
2022-11-07T00:46:47.859Z,57.24
2022-11-07T00:49:16.172Z,57.31
2022-11-07T00:51:44.410Z,57.25
2022-11-07T00:54:12.856Z,57.26
2022-11-07T00:56:42.479Z,57.33
2022-11-07T00:59:10.803Z,57.32
2022-11-07T01:01:39.178Z,57.30
2022-11-07T01:04:24.718Z,57.21
2022-11-07T01:06:53.310Z,57.37
2022-11-07T01:09:23.356Z,57.37
2022-11-07T01:11:52.998Z,57.06
2022-11-07T01:14:23.414Z,57.03
2022-11-07T01:16:52.475Z,57.38
2022-11-07T01:19:21.485Z,57.26
2022-11-07T01:21:50.332Z,57.38
2022-11-07T01:24:19.446Z,57.30
2022-11-07T01:26:48.927Z,57.36
2022-11-07T01:29:19.830Z,57.37
2022-11-07T01:31:48.576Z,57.25
2022-11-07T01:34:17.764Z,57.28
2022-11-07T01:36:46.211Z,57.31
2022-11-07T01:39:14.609Z,57.39
2022-11-07T01:41:43.266Z,57.20
2022-11-07T01:44:54.730Z,57.07
2022-11-07T01:47:26.506Z,57.02
2022-11-07T01:49:55.197Z,57.32
2022-11-07T01:52:27.946Z,57.25
2022-11-07T01:55:03.095Z,57.11
2022-11-07T01:57:36.261Z,57.05
2022-11-07T02:00:09.912Z,56.87
2022-11-07T02:02:39.298Z,56.68
2022-11-07T02:05:10.324Z,56.67
2022-11-07T02:07:40.452Z,56.42
2022-11-07T02:10:10.153Z,56.43
2022-11-07T02:12:38.999Z,56.32
2022-11-07T02:15:11.700Z,56.41
2022-11-07T02:17:40.416Z,56.32
2022-11-07T02:20:10.022Z,56.27
2022-11-07T02:22:43.652Z,56.16
2022-11-07T02:25:16.722Z,56.15
2022-11-07T02:27:47.823Z,56.16
2022-11-07T02:30:19.910Z,56.23
2022-11-07T02:32:48.777Z,56.18
2022-11-07T02:35:39.955Z,56.26
2022-11-07T02:38:13.348Z,56.33
2022-11-07T02:40:44.739Z,56.25
2022-11-07T02:43:15.028Z,56.26
2022-11-07T02:45:46.425Z,56.28
2022-11-07T02:48:14.664Z,56.23
2022-11-07T02:50:43.013Z,56.38
2022-11-07T02:53:11.647Z,56.42
2022-11-07T02:55:40.301Z,56.51
2022-11-07T02:58:10.011Z,56.54
2022-11-07T03:00:38.343Z,56.59
2022-11-07T03:03:06.646Z,56.58
2022-11-07T03:05:34.879Z,56.59
2022-11-07T03:08:03.156Z,56.66
2022-11-07T03:10:31.422Z,56.78
2022-11-07T03:12:59.657Z,56.88
2022-11-07T03:15:29.347Z,56.80
2022-11-07T03:18:00.052Z,56.84
2022-11-07T03:20:28.410Z,56.88
2022-11-07T03:22:56.702Z,56.82
2022-11-07T03:25:24.925Z,56.99
2022-11-07T03:27:53.208Z,56.92
2022-11-07T03:30:21.472Z,57.01
2022-11-07T03:32:53.289Z,57.08
2022-11-07T03:35:21.621Z,57.18
2022-11-07T03:37:51.089Z,57.76
2022-11-07T03:40:19.552Z,57.34
2022-11-07T03:42:47.785Z,57.51
2022-11-07T03:45:17.786Z,57.44
2022-11-07T03:47:47.714Z,57.36
2022-11-07T03:50:19.926Z,57.42
2022-11-07T03:52:48.329Z,57.41
2022-11-07T03:55:18.385Z,57.58
2022-11-07T03:57:47.744Z,57.59
2022-11-07T04:00:17.726Z,57.64
2022-11-07T04:02:46.388Z,57.49
2022-11-07T04:05:16.349Z,57.54
2022-11-07T04:07:44.667Z,57.35
2022-11-07T04:10:12.931Z,57.48
2022-11-07T04:12:58.606Z,57.32
2022-11-07T04:15:44.541Z,57.30
2022-11-07T04:18:12.765Z,57.20
2022-11-07T04:20:42.380Z,57.11
2022-11-07T04:23:10.664Z,57.07
2022-11-07T04:25:56.208Z,56.91
2022-11-07T04:28:24.440Z,56.72
2022-11-07T04:30:52.691Z,56.55
2022-11-07T04:33:20.935Z,56.49
2022-11-07T04:35:50.544Z,56.34
2022-11-07T04:38:18.818Z,56.29
2022-11-07T04:40:53.268Z,56.26
2022-11-07T04:43:21.550Z,56.18
2022-11-07T04:45:49.811Z,56.21
2022-11-07T04:48:18.392Z,56.10
2022-11-07T04:50:47.265Z,56.20
2022-11-07T04:53:19.185Z,56.20
2022-11-07T04:55:47.819Z,56.24
2022-11-07T04:58:17.062Z,56.27
2022-11-07T05:00:45.333Z,56.38
2022-11-07T05:03:13.953Z,56.47
2022-11-07T05:05:42.403Z,56.50
2022-11-07T05:08:10.684Z,56.52
2022-11-07T05:10:40.605Z,56.40
2022-11-07T05:13:08.850Z,56.33
2022-11-07T05:15:37.699Z,56.30
2022-11-07T05:18:06.321Z,56.43
2022-11-07T05:20:36.835Z,56.44
2022-11-07T05:23:16.004Z,56.58
2022-11-07T05:25:48.837Z,56.66
2022-11-07T05:28:25.745Z,56.73
2022-11-07T05:31:00.108Z,57.18
2022-11-07T05:33:29.779Z,57.10
2022-11-07T05:35:58.144Z,57.17
2022-11-07T05:38:26.426Z,57.26
2022-11-07T05:40:56.265Z,57.12
2022-11-07T05:43:24.684Z,57.06
2022-11-07T05:45:52.899Z,56.86
2022-11-07T05:48:21.168Z,56.88
2022-11-07T05:50:49.463Z,56.71
2022-11-07T05:53:20.974Z,56.72
2022-11-07T05:55:49.673Z,56.97
2022-11-07T05:58:19.974Z,57.04
2022-11-07T06:00:48.831Z,57.37
2022-11-07T06:03:18.532Z,57.51
2022-11-07T06:05:47.731Z,57.61
2022-11-07T06:08:16.534Z,57.78
2022-11-07T06:10:45.230Z,57.96
2022-11-07T06:13:15.614Z,58.10
2022-11-07T06:15:46.766Z,58.17
2022-11-07T06:18:17.971Z,58.15
2022-11-07T06:20:46.836Z,58.26
2022-11-07T06:23:15.674Z,58.31
2022-11-07T06:25:44.546Z,58.22
2022-11-07T06:28:16.028Z,58.19
2022-11-07T06:30:46.045Z,58.10
2022-11-07T06:33:17.077Z,58.12
2022-11-07T06:35:46.805Z,58.16
2022-11-07T06:38:16.373Z,58.21
2022-11-07T06:40:45.594Z,58.21
2022-11-07T06:43:16.306Z,58.26
2022-11-07T06:45:47.642Z,58.36
2022-11-07T06:48:16.249Z,58.50
2022-11-07T06:50:44.580Z,58.61
2022-11-07T06:53:15.090Z,58.64
2022-11-07T06:55:43.739Z,58.75
2022-11-07T06:58:12.168Z,58.89
2022-11-07T07:00:40.597Z,58.88
2022-11-07T07:03:11.616Z,58.97
2022-11-07T07:05:40.097Z,59.06
2022-11-07T07:08:09.337Z,59.07
2022-11-07T07:10:40.958Z,59.02
2022-11-07T07:13:09.240Z,59.09
2022-11-07T07:15:50.422Z,59.14
2022-11-07T07:18:21.679Z,59.17
2022-11-07T07:20:51.063Z,59.17
2022-11-07T07:23:21.667Z,59.16
2022-11-07T07:25:50.199Z,59.18
2022-11-07T07:28:18.448Z,59.18
2022-11-07T07:30:51.545Z,59.39
2022-11-07T07:33:22.089Z,59.31
2022-11-07T07:35:50.345Z,59.36
2022-11-07T07:38:18.702Z,59.37
2022-11-07T07:40:46.959Z,59.38
2022-11-07T07:43:15.830Z,59.30
2022-11-07T07:45:44.472Z,59.19
2022-11-07T07:48:12.832Z,59.13
2022-11-07T07:50:42.491Z,59.08
2022-11-07T07:53:10.953Z,59.06
2022-11-07T07:55:39.365Z,59.09
2022-11-07T07:58:07.663Z,59.21
2022-11-07T08:00:36.251Z,59.30
2022-11-07T08:03:06.334Z,59.28
2022-11-07T08:05:34.648Z,59.22
2022-11-07T08:08:04.530Z,59.42
2022-11-07T08:10:42.434Z,59.38
2022-11-07T08:13:11.379Z,59.51
2022-11-07T08:15:40.140Z,59.85
2022-11-07T08:18:08.512Z,59.93
2022-11-07T08:20:36.794Z,59.94
2022-11-07T08:23:15.751Z,59.92
2022-11-07T08:25:50.868Z,59.76
2022-11-07T08:28:20.385Z,59.78
2022-11-07T08:30:56.799Z,59.78
2022-11-07T08:33:25.097Z,59.93
2022-11-07T08:35:55.896Z,59.83
2022-11-07T08:38:25.680Z,59.93
2022-11-07T08:40:54.313Z,59.81
2022-11-07T08:43:22.781Z,59.86
2022-11-07T08:45:51.589Z,59.76
2022-11-07T08:48:20.148Z,60.29
2022-11-07T08:50:53.811Z,60.28
2022-11-07T08:53:22.663Z,60.65
2022-11-07T08:55:52.483Z,60.67
2022-11-07T08:58:23.572Z,60.34
2022-11-07T09:00:54.235Z,60.27
2022-11-07T09:06:10.924Z,60.06
2022-11-07T09:08:40.778Z,60.08
2022-11-07T09:11:10.823Z,59.85
2022-11-07T09:13:39.339Z,59.78
2022-11-07T09:16:08.317Z,59.56
2022-11-07T09:18:36.627Z,59.40
2022-11-07T09:21:05.090Z,59.45
2022-11-07T09:23:33.407Z,59.81
2022-11-07T09:26:02.209Z,60.27
2022-11-07T09:28:32.167Z,60.34
2022-11-07T09:31:01.924Z,59.87
2022-11-07T09:33:30.708Z,59.62
2022-11-07T09:36:00.793Z,59.26
2022-11-07T09:38:29.514Z,59.31
2022-11-07T09:41:06.674Z,59.21
2022-11-07T09:44:06.060Z,58.94
2022-11-07T09:46:51.220Z,58.85
2022-11-07T09:49:23.255Z,58.59
2022-11-07T09:51:57.582Z,57.86
2022-11-07T09:54:30.822Z,57.57
2022-11-07T09:57:00.962Z,57.13
2022-11-07T09:59:37.978Z,56.67
2022-11-07T10:02:16.611Z,56.34
2022-11-07T10:04:45.834Z,55.84
2022-11-07T10:07:27.245Z,55.33
2022-11-07T10:10:03.680Z,54.86
2022-11-07T10:12:57.602Z,54.50
2022-11-07T10:15:34.876Z,54.48
2022-11-07T10:18:16.263Z,54.26
2022-11-07T10:21:16.012Z,54.71
2022-11-07T10:24:06.351Z,55.00
2022-11-07T10:26:35.044Z,54.92
2022-11-07T10:29:13.538Z,54.72
2022-11-07T10:31:49.033Z,54.30
2022-11-07T10:34:24.046Z,54.18
2022-11-07T10:36:52.273Z,53.68
2022-11-07T10:39:21.350Z,53.45
2022-11-07T10:42:00.857Z,53.15
2022-11-07T10:44:30.985Z,52.99
2022-11-07T10:47:02.209Z,52.74
2022-11-07T10:49:32.928Z,52.77
2022-11-07T10:52:09.645Z,53.13
2022-11-07T10:54:40.205Z,52.90
2022-11-07T10:57:14.227Z,52.72
2022-11-07T10:59:55.072Z,52.49
2022-11-07T11:02:27.590Z,52.03
2022-11-07T11:04:59.157Z,51.99
2022-11-07T11:07:35.209Z,51.48
2022-11-07T11:10:04.790Z,50.85
2022-11-07T11:12:35.322Z,50.50
2022-11-07T11:15:18.205Z,49.84
2022-11-07T11:17:49.025Z,49.48
2022-11-07T11:20:33.396Z,49.12
2022-11-07T11:23:03.078Z,49.26
2022-11-07T11:25:31.454Z,48.81
2022-11-07T11:28:07.558Z,48.59
2022-11-07T11:30:38.153Z,47.65
2022-11-07T11:33:15.415Z,47.69
2022-11-07T11:35:49.093Z,47.13
2022-11-07T11:38:22.261Z,47.04
2022-11-07T11:41:04.788Z,46.72
2022-11-07T11:43:46.751Z,46.91
2022-11-07T11:46:23.212Z,46.84
2022-11-07T11:48:58.283Z,46.80
2022-11-07T11:51:40.105Z,46.59
2022-11-07T11:54:11.628Z,46.58
2022-11-07T11:56:53.197Z,46.35
2022-11-07T12:00:03.466Z,46.29
2022-11-07T12:03:20.752Z,46.88
2022-11-07T12:06:22.524Z,46.99
2022-11-07T12:09:18.235Z,47.22
2022-11-07T12:12:01.161Z,46.93
2022-11-07T12:14:57.613Z,46.99
2022-11-07T12:17:34.379Z,46.36
2022-11-07T12:20:19.450Z,46.21
2022-11-07T12:23:06.257Z,46.17
2022-11-07T12:25:42.778Z,46.27
2022-11-07T12:28:32.540Z,46.72
2022-11-07T12:31:25.876Z,46.47
2022-11-07T12:34:08.112Z,46.13
2022-11-07T12:36:54.932Z,46.14
2022-11-07T12:39:51.370Z,46.30
2022-11-07T12:42:35.580Z,45.61
2022-11-07T12:45:14.963Z,45.59
2022-11-07T12:48:13.073Z,44.35
2022-11-07T12:50:50.277Z,43.82
2022-11-07T12:53:31.950Z,43.60
2022-11-07T12:56:08.335Z,43.04
2022-11-07T12:58:39.991Z,43.49
2022-11-07T13:01:09.365Z,43.45
2022-11-07T13:04:07.338Z,43.67
2022-11-07T13:06:41.205Z,43.50
2022-11-07T13:09:22.600Z,43.94
2022-11-07T13:11:58.558Z,43.90
2022-11-07T13:14:32.318Z,43.93
2022-11-07T13:17:21.424Z,43.87
2022-11-07T13:20:02.279Z,44.19
2022-11-07T13:22:36.024Z,44.26
2022-11-07T13:25:28.462Z,44.72
2022-11-07T13:28:24.018Z,44.69
2022-11-07T13:31:01.112Z,44.57
2022-11-07T13:33:34.542Z,44.53
2022-11-07T13:36:16.476Z,44.69
2022-11-07T13:38:51.453Z,44.73
2022-11-07T13:41:20.969Z,44.81
2022-11-07T13:43:57.138Z,44.58
2022-11-07T13:46:32.310Z,44.80
2022-11-07T13:49:07.409Z,44.59
2022-11-07T13:51:41.133Z,44.68
2022-11-07T13:54:17.610Z,44.41
2022-11-07T13:56:54.725Z,44.24
2022-11-07T13:59:39.053Z,44.97
2022-11-07T14:02:08.176Z,44.65
2022-11-07T14:04:44.526Z,44.85
2022-11-07T14:07:26.589Z,44.74
2022-11-07T14:10:00.205Z,45.18
2022-11-07T14:12:29.895Z,45.19
2022-11-07T14:15:01.610Z,44.89
2022-11-07T14:17:35.672Z,45.04
2022-11-07T14:20:13.930Z,45.13
2022-11-07T14:22:51.630Z,45.41
2022-11-07T14:25:26.216Z,45.44
2022-11-07T14:27:54.693Z,45.37
2022-11-07T14:30:26.949Z,45.71
2022-11-07T14:32:58.444Z,45.96
2022-11-07T14:35:34.405Z,46.18
2022-11-07T14:38:17.066Z,45.82
2022-11-07T14:40:45.789Z,46.17
2022-11-07T14:43:17.239Z,46.22
2022-11-07T14:46:11.393Z,46.72
2022-11-07T14:48:37.460Z,46.67
2022-11-07T14:51:06.676Z,46.61
2022-11-07T14:53:49.860Z,46.77
2022-11-07T14:56:21.738Z,46.70
2022-11-07T14:58:50.275Z,46.59
2022-11-07T15:01:29.458Z,46.91
2022-11-07T15:04:01.697Z,46.86
2022-11-07T15:06:41.707Z,47.36
2022-11-07T15:09:12.130Z,47.04
2022-11-07T15:11:42.715Z,47.30
2022-11-07T15:14:24.198Z,47.20
2022-11-07T15:16:55.287Z,46.82
2022-11-07T15:19:24.875Z,46.66
2022-11-07T15:21:56.401Z,46.65
2022-11-07T15:24:39.138Z,46.58
2022-11-07T15:27:20.105Z,46.36
2022-11-07T15:29:55.295Z,46.41
2022-11-07T15:32:27.970Z,46.30
2022-11-07T15:35:12.116Z,45.87
2022-11-07T15:37:54.379Z,46.11
2022-11-07T15:40:23.789Z,45.83
2022-11-07T15:42:52.439Z,46.09
2022-11-07T15:45:22.598Z,46.05
2022-11-07T15:47:52.989Z,46.08
2022-11-07T15:50:24.638Z,46.23
2022-11-07T15:52:54.307Z,46.35
2022-11-07T15:55:24.258Z,46.45
2022-11-07T15:57:55.351Z,46.56
2022-11-07T16:00:25.962Z,46.52
2022-11-07T16:02:55.689Z,46.49
2022-11-07T16:05:24.208Z,46.67
2022-11-07T16:07:52.537Z,46.76
2022-11-07T16:10:24.894Z,46.89
2022-11-07T16:12:53.709Z,46.97
2022-11-07T16:15:25.001Z,47.18
2022-11-07T16:17:53.280Z,47.25
2022-11-07T16:20:24.599Z,47.41
2022-11-07T16:22:53.328Z,47.53
2022-11-07T16:25:25.792Z,47.74
2022-11-07T16:27:56.249Z,47.84
2022-11-07T16:30:24.479Z,48.02
2022-11-07T16:32:52.811Z,48.01
2022-11-07T16:35:22.729Z,48.16
2022-11-07T16:37:51.031Z,48.46
2022-11-07T16:40:20.912Z,48.46
2022-11-07T16:42:49.177Z,48.63
2022-11-07T16:45:20.511Z,48.53
2022-11-07T16:47:49.434Z,48.51
2022-11-07T16:50:19.166Z,48.56
2022-11-07T16:52:48.823Z,48.47
2022-11-07T16:55:18.925Z,48.29
2022-11-07T16:57:48.524Z,48.25
2022-11-07T17:00:20.545Z,48.30
2022-11-07T17:02:48.986Z,48.26
2022-11-07T17:05:17.734Z,48.45
2022-11-07T17:07:46.105Z,48.27
2022-11-07T17:10:18.190Z,48.16
2022-11-07T17:12:46.658Z,48.44
2022-11-07T17:15:15.044Z,48.57
2022-11-07T17:17:43.493Z,48.70
2022-11-07T17:20:49.937Z,48.97
2022-11-07T17:23:10.345Z,48.98
2022-11-07T17:25:40.546Z,49.04
2022-11-07T17:28:09.083Z,48.90
2022-11-07T17:30:37.487Z,49.07
2022-11-07T17:33:06.248Z,49.04
2022-11-07T17:35:35.152Z,49.00
2022-11-07T17:38:04.028Z,49.04
2022-11-07T17:40:35.000Z,48.87
2022-11-07T17:43:04.684Z,49.18
2022-11-07T17:45:33.049Z,49.13
2022-11-07T17:48:01.273Z,49.01
2022-11-07T17:50:29.731Z,49.14
2022-11-07T17:52:58.211Z,49.13
2022-11-07T17:55:26.568Z,49.09
2022-11-07T17:57:55.147Z,49.21
2022-11-07T18:00:27.808Z,49.23
2022-11-07T18:02:56.469Z,49.30
2022-11-07T18:05:30.305Z,49.24
2022-11-07T18:08:01.538Z,49.42
2022-11-07T18:10:30.492Z,49.52
2022-11-07T18:12:58.910Z,49.47
2022-11-07T18:15:28.661Z,49.63
2022-11-07T18:17:56.973Z,49.86
2022-11-07T18:20:25.999Z,49.83
2022-11-07T18:22:54.316Z,49.94
2022-11-07T18:25:22.630Z,50.07
2022-11-07T18:27:50.853Z,50.03
2022-11-07T18:30:19.284Z,50.18
2022-11-07T18:32:48.913Z,50.19
2022-11-07T18:35:17.394Z,50.25
2022-11-07T18:37:45.668Z,50.28
2022-11-07T18:40:14.576Z,50.34
2022-11-07T18:42:47.140Z,49.98
2022-11-07T18:45:15.512Z,50.31
2022-11-07T18:47:43.891Z,50.21
2022-11-07T18:50:13.810Z,50.30
2022-11-07T18:52:42.106Z,50.31
2022-11-07T18:55:27.618Z,50.36
2022-11-07T18:57:56.136Z,50.28
2022-11-07T19:00:24.500Z,50.25
2022-11-07T19:02:53.599Z,50.43
2022-11-07T19:05:23.327Z,50.24
2022-11-07T19:07:51.760Z,50.33
2022-11-07T19:10:20.811Z,50.56
2022-11-07T19:12:49.044Z,50.48
2022-11-07T19:15:17.372Z,50.40
2022-11-07T19:17:45.675Z,50.33
2022-11-07T19:20:14.025Z,50.26
2022-11-07T19:22:43.699Z,50.24
2022-11-07T19:25:11.981Z,50.29
2022-11-07T19:27:41.254Z,50.30
2022-11-07T19:30:11.760Z,50.28
2022-11-07T19:32:40.192Z,50.23
2022-11-07T19:35:08.982Z,50.28
2022-11-07T19:37:38.333Z,50.22
2022-11-07T19:40:10.793Z,50.45
2022-11-07T19:42:39.078Z,50.29
2022-11-07T19:45:08.426Z,50.49
2022-11-07T19:47:36.703Z,50.67
2022-11-07T19:50:05.694Z,50.51
2022-11-07T19:52:34.466Z,50.55
2022-11-07T19:55:02.811Z,50.66
2022-11-07T19:57:32.776Z,50.65
2022-11-07T20:00:01.138Z,50.73
2022-11-07T20:02:35.473Z,50.52
2022-11-07T20:05:05.373Z,50.74
2022-11-07T20:07:33.692Z,50.63
2022-11-07T20:10:02.089Z,50.68
2022-11-07T20:12:31.723Z,50.67
2022-11-07T20:15:00.520Z,50.86
2022-11-07T20:17:28.733Z,50.90
2022-11-07T20:20:01.133Z,50.93
2022-11-07T20:22:32.152Z,50.82
2022-11-07T20:25:00.416Z,50.74
2022-11-07T20:27:28.855Z,50.77
2022-11-07T20:29:59.424Z,50.89
2022-11-07T20:32:28.039Z,50.78
2022-11-07T20:34:56.510Z,50.76
2022-11-07T20:37:24.838Z,50.92
2022-11-07T20:39:53.148Z,51.00
2022-11-07T20:42:21.466Z,50.88
2022-11-07T20:44:51.566Z,50.92
2022-11-07T20:47:21.650Z,51.05
2022-11-07T20:49:50.108Z,51.08
2022-11-07T20:52:18.429Z,51.05
2022-11-07T20:54:46.738Z,51.00
2022-11-07T20:57:15.122Z,51.00
2022-11-07T20:59:43.976Z,50.97
2022-11-07T21:02:13.863Z,50.85
2022-11-07T21:05:11.327Z,50.93
2022-11-07T21:07:32.046Z,50.95
2022-11-07T21:10:00.373Z,50.84
2022-11-07T21:12:28.741Z,50.92
2022-11-07T21:14:57.135Z,51.00
2022-11-07T21:17:25.476Z,50.81
2022-11-07T21:19:55.561Z,50.87
2022-11-07T21:22:28.996Z,50.91
2022-11-07T21:24:57.674Z,51.02
2022-11-07T21:27:25.969Z,50.97
2022-11-07T21:29:54.349Z,51.24
2022-11-07T21:32:22.676Z,51.06
2022-11-07T21:34:50.955Z,51.17
2022-11-07T21:37:20.637Z,51.19
2022-11-07T21:39:49.018Z,51.19
2022-11-07T21:42:18.206Z,51.21
2022-11-07T21:44:46.513Z,51.22
2022-11-07T21:47:14.825Z,51.41
2022-11-07T21:49:43.191Z,51.39
2022-11-07T21:52:11.903Z,51.29
2022-11-07T21:54:41.627Z,51.28
2022-11-07T21:57:09.946Z,51.32
2022-11-07T21:59:38.355Z,51.40
2022-11-07T22:02:06.758Z,51.43
2022-11-07T22:04:35.149Z,51.36
2022-11-07T22:07:03.516Z,51.49
2022-11-07T22:09:31.865Z,51.53
2022-11-07T22:12:01.592Z,51.56
2022-11-07T22:14:29.979Z,51.78
2022-11-07T22:16:58.286Z,51.76
2022-11-07T22:19:27.187Z,51.77
2022-11-07T22:21:55.553Z,51.63
2022-11-07T22:24:27.112Z,51.74
2022-11-07T22:26:57.187Z,51.82
2022-11-07T22:29:27.158Z,51.70
2022-11-07T22:31:55.497Z,51.76
2022-11-07T22:34:23.798Z,51.84
2022-11-07T22:36:52.125Z,51.82
2022-11-07T22:39:20.645Z,51.84
2022-11-07T22:41:49.189Z,51.74
2022-11-07T22:44:17.508Z,51.77
2022-11-07T22:46:47.225Z,51.63
2022-11-07T22:49:15.527Z,51.73
2022-11-07T22:51:44.218Z,51.77
2022-11-07T22:54:14.281Z,51.82
2022-11-07T22:56:42.613Z,51.89
2022-11-07T22:59:13.141Z,51.99
2022-11-07T23:01:44.000Z,51.92
2022-11-07T23:04:18.069Z,51.94
2022-11-07T23:06:46.833Z,51.88
2022-11-07T23:09:16.623Z,51.94
2022-11-07T23:11:46.934Z,52.00
2022-11-07T23:14:18.150Z,52.02
2022-11-07T23:16:49.291Z,51.69
2022-11-07T23:19:23.364Z,51.96
2022-11-07T23:21:52.621Z,52.02
2022-11-07T23:24:21.261Z,52.09
2022-11-07T23:26:49.877Z,52.13
2022-11-07T23:29:20.573Z,52.11
2022-11-07T23:31:50.970Z,52.14
2022-11-07T23:34:22.592Z,52.07
2022-11-07T23:36:52.473Z,52.05
2022-11-07T23:39:22.833Z,52.37
2022-11-07T23:41:51.135Z,52.03
2022-11-07T23:44:19.582Z,52.29
2022-11-07T23:47:05.657Z,52.31
2022-11-07T23:49:52.722Z,52.24
2022-11-07T23:52:21.091Z,52.11
2022-11-07T23:55:07.049Z,52.23
2022-11-07T23:57:57.140Z,52.27
